createdAt,value
2018-10-09T00:00:53.072Z,13.59
2018-10-09T00:01:52.991Z,13.59
2018-10-09T00:02:52.983Z,13.60
2018-10-09T00:03:52.975Z,13.66
2018-10-09T00:04:52.960Z,13.63
2018-10-09T00:05:52.955Z,13.60
2018-10-09T00:06:52.944Z,13.66
2018-10-09T00:07:52.924Z,13.60
2018-10-09T00:08:52.922Z,13.69
2018-10-09T00:09:52.912Z,13.63
2018-10-09T00:10:52.894Z,13.78
2018-10-09T00:11:52.887Z,13.70
2018-10-09T00:12:52.871Z,13.66
2018-10-09T00:13:52.862Z,13.59
2018-10-09T00:14:52.849Z,13.60
2018-10-09T00:15:52.847Z,13.54
2018-10-09T00:16:52.829Z,13.52
2018-10-09T00:17:52.822Z,13.52
2018-10-09T00:18:52.806Z,13.48
2018-10-09T00:19:52.799Z,13.45
2018-10-09T00:20:52.788Z,13.48
2018-10-09T00:21:52.774Z,13.48
2018-10-09T00:22:52.763Z,13.49
2018-10-09T00:23:52.753Z,13.48
2018-10-09T00:24:52.743Z,13.49
2018-10-09T00:25:52.739Z,13.55
2018-10-09T00:26:52.727Z,13.54
2018-10-09T00:27:52.716Z,13.54
2018-10-09T00:28:52.699Z,13.55
2018-10-09T00:29:52.683Z,13.52
2018-10-09T00:30:52.679Z,13.52
2018-10-09T00:31:52.667Z,13.54
2018-10-09T00:32:52.649Z,13.48
2018-10-09T00:33:52.640Z,13.51
2018-10-09T00:34:52.635Z,13.48
2018-10-09T00:35:52.620Z,13.49
2018-10-09T00:36:52.611Z,13.48
2018-10-09T00:37:52.599Z,13.55
2018-10-09T00:38:52.593Z,13.57
2018-10-09T00:39:52.575Z,13.49
2018-10-09T00:40:52.574Z,13.51
2018-10-09T00:41:52.555Z,13.49
2018-10-09T00:42:52.547Z,13.63
2018-10-09T00:43:52.528Z,13.64
2018-10-09T00:44:52.520Z,13.63
2018-10-09T00:45:52.513Z,13.57
2018-10-09T00:46:52.508Z,13.64
2018-10-09T00:47:52.496Z,13.62
2018-10-09T00:48:52.481Z,13.63
2018-10-09T00:49:52.473Z,13.66
2018-10-09T00:50:52.457Z,13.63
2018-10-09T00:51:52.449Z,13.59
2018-10-09T00:52:52.436Z,13.54
2018-10-09T00:53:52.423Z,13.54
2018-10-09T00:54:52.410Z,13.55
2018-10-09T00:55:52.403Z,13.49
2018-10-09T00:56:52.390Z,13.45
2018-10-09T00:57:52.375Z,13.44
2018-10-09T00:58:52.375Z,13.42
2018-10-09T00:59:52.358Z,13.25
2018-10-09T01:00:52.344Z,13.26
2018-10-09T01:01:52.340Z,13.28
2018-10-09T01:02:52.325Z,13.23
2018-10-09T01:03:52.315Z,13.32
2018-10-09T01:04:52.300Z,13.28
2018-10-09T01:05:52.293Z,13.42
2018-10-09T01:06:52.281Z,13.38
2018-10-09T01:07:52.268Z,13.36
2018-10-09T01:08:52.257Z,13.44
2018-10-09T01:09:52.250Z,13.38
2018-10-09T01:10:52.231Z,13.41
2018-10-09T01:11:52.223Z,13.26
2018-10-09T01:12:52.218Z,13.29
2018-10-09T01:13:52.203Z,13.17
2018-10-09T01:14:52.194Z,13.19
2018-10-09T01:15:52.180Z,13.14
2018-10-09T01:16:52.165Z,13.04
2018-10-09T01:17:52.197Z,13.11
2018-10-09T01:18:52.147Z,13.05
2018-10-09T01:19:52.140Z,13.10
2018-10-09T01:20:52.128Z,13.03
2018-10-09T01:21:52.114Z,12.89
2018-10-09T01:22:52.097Z,12.96
2018-10-09T01:23:52.093Z,12.86
2018-10-09T01:24:52.079Z,13.00
2018-10-09T01:25:52.075Z,12.96
2018-10-09T01:26:52.057Z,13.04
2018-10-09T01:27:52.047Z,12.97
2018-10-09T01:28:52.035Z,13.10
2018-10-09T01:29:52.024Z,13.08
2018-10-09T01:30:52.011Z,13.14
2018-10-09T01:31:51.997Z,13.14
2018-10-09T01:32:51.984Z,13.15
2018-10-09T01:33:51.978Z,13.19
2018-10-09T01:34:51.967Z,13.17
2018-10-09T01:35:51.953Z,13.10
2018-10-09T01:36:51.949Z,13.10
2018-10-09T01:37:51.931Z,13.11
2018-10-09T01:38:51.922Z,13.14
2018-10-09T01:39:51.910Z,13.11
2018-10-09T01:40:51.902Z,13.15
2018-10-09T01:41:51.895Z,13.12
2018-10-09T01:42:51.882Z,13.11
2018-10-09T01:43:51.861Z,13.26
2018-10-09T01:44:51.857Z,13.25
2018-10-09T01:45:51.847Z,13.11
2018-10-09T01:46:51.831Z,13.19
2018-10-09T01:47:51.821Z,13.14
2018-10-09T01:48:51.810Z,13.17
2018-10-09T01:49:51.800Z,13.08
2018-10-09T01:50:51.788Z,13.12
2018-10-09T01:51:51.780Z,13.08
2018-10-09T01:52:51.768Z,13.08
2018-10-09T01:53:51.755Z,13.10
2018-10-09T01:54:51.740Z,13.08
2018-10-09T01:55:51.734Z,13.03
2018-10-09T01:56:51.719Z,13.05
2018-10-09T01:57:51.708Z,12.95
2018-10-09T01:58:51.697Z,13.07
2018-10-09T01:59:51.683Z,13.08
2018-10-09T02:00:51.675Z,13.01
2018-10-09T02:01:51.663Z,13.04
2018-10-09T02:02:51.653Z,13.04
2018-10-09T02:03:51.648Z,13.11
2018-10-09T02:04:51.632Z,13.08
2018-10-09T02:05:51.619Z,13.07
2018-10-09T02:06:51.606Z,13.12
2018-10-09T02:07:51.598Z,13.12
2018-10-09T02:08:51.586Z,13.20
2018-10-09T02:09:51.578Z,13.12
2018-10-09T02:10:51.568Z,13.20
2018-10-09T02:11:51.555Z,13.17
2018-10-09T02:12:51.541Z,13.23
2018-10-09T02:13:51.529Z,13.15
2018-10-09T02:14:51.533Z,13.19
2018-10-09T02:15:51.505Z,13.08
2018-10-09T02:16:51.503Z,13.04
2018-10-09T02:17:51.485Z,13.03
2018-10-09T02:18:51.469Z,13.03
2018-10-09T02:19:51.466Z,13.01
2018-10-09T02:20:51.449Z,13.00
2018-10-09T02:21:51.440Z,12.89
2018-10-09T02:22:51.430Z,13.01
2018-10-09T02:23:51.418Z,13.00
2018-10-09T02:24:51.404Z,12.90
2018-10-09T02:25:51.399Z,12.89
2018-10-09T02:26:51.386Z,12.97
2018-10-09T02:27:51.367Z,12.97
2018-10-09T02:28:51.363Z,13.08
2018-10-09T02:29:51.355Z,13.00
2018-10-09T02:30:51.342Z,13.00
2018-10-09T02:31:51.336Z,13.07
2018-10-09T02:32:51.315Z,12.96
2018-10-09T02:33:51.305Z,13.00
2018-10-09T02:34:51.296Z,13.03
2018-10-09T02:35:51.282Z,13.01
2018-10-09T02:36:51.280Z,13.05
2018-10-09T02:37:51.256Z,13.04
2018-10-09T02:38:51.253Z,13.00
2018-10-09T02:39:51.234Z,12.90
2018-10-09T02:40:51.226Z,12.86
2018-10-09T02:41:51.216Z,12.93
2018-10-09T02:42:51.204Z,12.87
2018-10-09T02:43:51.189Z,12.86
2018-10-09T02:44:51.183Z,12.86
2018-10-09T02:45:51.171Z,12.89
2018-10-09T02:46:51.161Z,13.00
2018-10-09T02:47:51.146Z,13.03
2018-10-09T02:48:51.140Z,13.07
2018-10-09T02:49:51.126Z,13.07
2018-10-09T02:50:51.117Z,13.07
2018-10-09T02:51:51.101Z,13.03
2018-10-09T02:52:51.093Z,12.90
2018-10-09T02:53:51.079Z,12.83
2018-10-09T02:54:51.071Z,12.83
2018-10-09T02:55:51.055Z,12.82
2018-10-09T02:56:51.050Z,12.62
2018-10-09T02:57:51.037Z,12.59
2018-10-09T02:58:51.021Z,12.54
2018-10-09T02:59:51.007Z,12.56
2018-10-09T03:00:50.996Z,12.59
2018-10-09T03:01:50.990Z,12.53
2018-10-09T03:02:50.980Z,12.57
2018-10-09T03:03:50.963Z,12.56
2018-10-09T03:04:50.954Z,12.56
2018-10-09T03:05:50.942Z,12.64
2018-10-09T03:06:50.930Z,12.64
2018-10-09T03:07:50.920Z,12.68
2018-10-09T03:08:50.909Z,12.68
2018-10-09T03:09:50.895Z,12.72
2018-10-09T03:10:50.885Z,12.68
2018-10-09T03:11:50.882Z,12.75
2018-10-09T03:12:50.864Z,12.71
2018-10-09T03:13:50.854Z,12.70
2018-10-09T03:14:50.838Z,12.77
2018-10-09T03:15:50.826Z,12.74
2018-10-09T03:16:50.817Z,12.83
2018-10-09T03:17:50.808Z,12.86
2018-10-09T03:18:50.789Z,12.82
2018-10-09T03:19:50.783Z,12.83
2018-10-09T03:20:50.768Z,12.82
2018-10-09T03:21:50.762Z,12.79
2018-10-09T03:22:50.747Z,12.85
2018-10-09T03:23:50.731Z,12.83
2018-10-09T03:24:50.724Z,12.79
2018-10-09T03:25:50.712Z,12.82
2018-10-09T03:26:50.702Z,12.83
2018-10-09T03:27:50.693Z,12.83
2018-10-09T03:28:50.681Z,12.85
2018-10-09T03:29:50.666Z,12.77
2018-10-09T03:30:50.656Z,12.79
2018-10-09T03:31:50.652Z,12.78
2018-10-09T03:32:50.634Z,12.77
2018-10-09T03:33:50.624Z,12.77
2018-10-09T03:34:50.605Z,12.70
2018-10-09T03:35:50.595Z,12.71
2018-10-09T03:36:50.590Z,12.65
2018-10-09T03:37:50.569Z,12.65
2018-10-09T03:38:50.559Z,12.70
2018-10-09T03:39:50.551Z,12.62
2018-10-09T03:40:50.544Z,12.65
2018-10-09T03:41:50.532Z,12.65
2018-10-09T03:42:50.520Z,12.70
2018-10-09T03:43:50.516Z,12.72
2018-10-09T03:44:50.495Z,12.67
2018-10-09T03:45:50.487Z,12.71
2018-10-09T03:46:50.467Z,12.68
2018-10-09T03:47:50.466Z,12.68
2018-10-09T03:48:50.444Z,12.67
2018-10-09T03:49:50.441Z,12.60
2018-10-09T03:50:50.427Z,12.64
2018-10-09T03:51:50.410Z,12.65
2018-10-09T03:52:50.404Z,12.65
2018-10-09T03:53:50.389Z,12.59
2018-10-09T03:54:50.386Z,12.60
2018-10-09T03:55:50.365Z,12.59
2018-10-09T03:56:50.356Z,12.57
2018-10-09T03:57:50.345Z,12.53
2018-10-09T03:58:50.336Z,12.53
2018-10-09T03:59:50.325Z,12.57
2018-10-09T04:00:50.308Z,12.56
2018-10-09T04:01:50.298Z,12.65
2018-10-09T04:02:50.284Z,12.54
2018-10-09T04:03:50.277Z,12.54
2018-10-09T04:04:50.263Z,12.41
2018-10-09T04:05:50.249Z,12.38
2018-10-09T04:06:50.247Z,12.41
2018-10-09T04:07:50.225Z,12.39
2018-10-09T04:08:50.257Z,12.38
2018-10-09T04:09:50.210Z,12.42
2018-10-09T04:10:50.193Z,12.37
2018-10-09T04:11:50.192Z,12.32
2018-10-09T04:12:50.244Z,12.34
2018-10-09T04:13:50.161Z,12.34
2018-10-09T04:14:50.148Z,12.31
2018-10-09T04:15:50.136Z,12.29
2018-10-09T04:16:50.126Z,12.38
2018-10-09T04:17:50.116Z,12.35
2018-10-09T04:18:50.100Z,12.37
2018-10-09T04:19:50.089Z,12.32
2018-10-09T04:20:50.084Z,12.29
2018-10-09T04:21:50.070Z,12.37
2018-10-09T04:22:50.057Z,12.29
2018-10-09T04:23:50.044Z,12.24
2018-10-09T04:24:50.035Z,12.31
2018-10-09T04:25:50.021Z,12.23
2018-10-09T04:26:50.015Z,12.14
2018-10-09T04:27:50.000Z,12.13
2018-10-09T04:28:49.982Z,12.02
2018-10-09T04:29:49.970Z,11.99
2018-10-09T04:30:49.963Z,11.99
2018-10-09T04:31:49.951Z,11.99
2018-10-09T04:32:49.938Z,11.98
2018-10-09T04:33:49.932Z,12.07
2018-10-09T04:34:49.923Z,11.94
2018-10-09T04:35:49.900Z,11.86
2018-10-09T04:36:49.897Z,11.90
2018-10-09T04:37:49.902Z,11.90
2018-10-09T04:38:49.869Z,11.78
2018-10-09T04:39:49.859Z,11.78
2018-10-09T04:40:49.844Z,11.82
2018-10-09T04:41:49.835Z,11.78
2018-10-09T04:42:49.821Z,11.86
2018-10-09T04:43:49.808Z,11.88
2018-10-09T04:44:49.798Z,11.91
2018-10-09T04:45:49.784Z,11.91
2018-10-09T04:46:49.779Z,11.91
2018-10-09T04:47:49.763Z,12.04
2018-10-09T04:48:49.754Z,12.10
2018-10-09T04:49:49.738Z,12.01
2018-10-09T04:50:49.732Z,12.14
2018-10-09T04:51:49.712Z,12.07
2018-10-09T04:52:49.708Z,12.14
2018-10-09T04:53:49.697Z,12.17
2018-10-09T04:54:49.677Z,12.10
2018-10-09T04:55:49.667Z,12.04
2018-10-09T04:56:49.656Z,12.01
2018-10-09T04:57:49.654Z,11.90
2018-10-09T04:58:49.636Z,11.88
2018-10-09T04:59:49.617Z,11.80
2018-10-09T05:00:49.690Z,11.83
2018-10-09T05:01:49.599Z,11.82
2018-10-09T05:02:49.585Z,11.80
2018-10-09T05:03:49.571Z,11.80
2018-10-09T05:04:49.566Z,11.75
2018-10-09T05:05:49.550Z,11.80
2018-10-09T05:06:49.541Z,11.82
2018-10-09T05:07:49.528Z,11.88
2018-10-09T05:08:49.511Z,11.95
2018-10-09T05:09:49.501Z,11.90
2018-10-09T05:10:49.495Z,11.88
2018-10-09T05:11:49.482Z,11.96
2018-10-09T05:12:49.472Z,11.96
2018-10-09T05:13:49.450Z,12.04
2018-10-09T05:14:49.444Z,11.98
2018-10-09T05:15:49.432Z,11.96
2018-10-09T05:16:49.417Z,12.01
2018-10-09T05:17:49.495Z,12.01
2018-10-09T05:18:49.397Z,12.04
2018-10-09T05:19:49.383Z,12.01
2018-10-09T05:20:49.374Z,12.04
2018-10-09T05:21:49.358Z,12.09
2018-10-09T05:22:49.348Z,12.04
2018-10-09T05:23:49.340Z,12.02
2018-10-09T05:24:49.323Z,12.13
2018-10-09T05:25:49.311Z,12.14
2018-10-09T05:26:49.299Z,12.14
2018-10-09T05:27:49.289Z,12.09
2018-10-09T05:28:49.277Z,12.05
2018-10-09T05:29:49.263Z,12.02
2018-10-09T05:30:49.251Z,11.99
2018-10-09T05:31:49.249Z,12.05
2018-10-09T05:32:49.236Z,12.04
2018-10-09T05:33:49.217Z,12.10
2018-10-09T05:34:49.210Z,12.14
2018-10-09T05:35:49.190Z,12.17
2018-10-09T05:36:49.184Z,12.14
2018-10-09T05:37:49.264Z,12.16
2018-10-09T05:38:49.161Z,12.17
2018-10-09T05:39:49.150Z,12.17
2018-10-09T05:40:49.137Z,12.14
2018-10-09T05:41:49.124Z,12.27
2018-10-09T05:42:49.107Z,12.10
2018-10-09T05:43:49.103Z,12.17
2018-10-09T05:44:49.095Z,12.07
2018-10-09T05:45:49.073Z,12.07
2018-10-09T05:46:49.064Z,12.01
2018-10-09T05:47:49.052Z,12.07
2018-10-09T05:48:49.044Z,12.10
2018-10-09T05:49:49.028Z,12.09
2018-10-09T05:50:49.021Z,12.09
2018-10-09T05:51:49.005Z,12.09
2018-10-09T05:52:48.989Z,12.16
2018-10-09T05:53:48.983Z,12.20
2018-10-09T05:54:48.975Z,12.12
2018-10-09T05:55:48.957Z,12.13
2018-10-09T05:56:48.942Z,12.07
2018-10-09T05:57:48.940Z,12.16
2018-10-09T05:58:48.925Z,12.17
2018-10-09T05:59:48.910Z,12.09
2018-10-09T06:00:48.897Z,12.13
2018-10-09T06:01:48.884Z,12.13
2018-10-09T06:02:48.876Z,12.19
2018-10-09T06:03:48.862Z,12.14
2018-10-09T06:04:48.849Z,12.13
2018-10-09T06:05:48.860Z,12.19
2018-10-09T06:06:48.821Z,12.14
2018-10-09T06:07:48.815Z,12.20
2018-10-09T06:08:48.804Z,12.14
2018-10-09T06:09:48.793Z,12.10
2018-10-09T06:10:48.776Z,12.12
2018-10-09T06:11:48.770Z,12.19
2018-10-09T06:12:48.753Z,12.20
2018-10-09T06:13:48.742Z,12.20
2018-10-09T06:14:48.740Z,12.24
2018-10-09T06:15:48.762Z,12.20
2018-10-09T06:16:48.706Z,12.28
2018-10-09T06:17:48.696Z,12.28
2018-10-09T06:18:48.682Z,12.23
2018-10-09T06:19:48.676Z,12.20
2018-10-09T06:20:48.657Z,12.21
2018-10-09T06:21:48.649Z,12.27
2018-10-09T06:22:48.642Z,12.23
2018-10-09T06:23:48.625Z,12.29
2018-10-09T06:24:48.612Z,12.16
2018-10-09T06:25:48.600Z,12.21
2018-10-09T06:26:48.586Z,12.23
2018-10-09T06:27:48.580Z,12.24
2018-10-09T06:28:48.564Z,12.21
2018-10-09T06:29:48.553Z,12.17
2018-10-09T06:30:48.543Z,12.16
2018-10-09T06:31:48.529Z,12.14
2018-10-09T06:32:48.515Z,12.09
2018-10-09T06:33:48.542Z,12.10
2018-10-09T06:34:48.489Z,11.99
2018-10-09T06:35:48.482Z,12.07
2018-10-09T06:36:48.473Z,12.16
2018-10-09T06:37:48.462Z,12.09
2018-10-09T06:38:48.448Z,12.14
2018-10-09T06:39:48.534Z,12.12
2018-10-09T06:40:48.537Z,12.19
2018-10-09T06:41:48.406Z,12.27
2018-10-09T06:42:48.440Z,12.16
2018-10-09T06:43:48.390Z,12.17
2018-10-09T06:44:48.380Z,12.19
2018-10-09T06:45:48.363Z,12.17
2018-10-09T06:46:48.353Z,12.19
2018-10-09T06:47:48.424Z,12.27
2018-10-09T06:48:48.327Z,12.19
2018-10-09T06:49:48.319Z,12.32
2018-10-09T06:50:48.311Z,12.28
2018-10-09T06:51:48.290Z,12.34
2018-10-09T06:52:48.284Z,12.28
2018-10-09T06:53:48.443Z,12.37
2018-10-09T06:54:48.287Z,12.27
2018-10-09T06:55:48.245Z,12.35
2018-10-09T06:56:48.232Z,12.34
2018-10-09T06:57:48.223Z,12.29
2018-10-09T06:58:48.226Z,12.28
2018-10-09T06:59:48.202Z,12.29
2018-10-09T07:00:48.184Z,12.29
2018-10-09T07:01:48.181Z,12.37
2018-10-09T07:02:48.164Z,12.31
2018-10-09T07:03:48.147Z,12.45
2018-10-09T07:04:48.138Z,12.54
2018-10-09T07:05:48.125Z,12.57
2018-10-09T07:06:48.121Z,12.67
2018-10-09T07:07:48.109Z,12.71
2018-10-09T07:08:48.096Z,12.85
2018-10-09T07:09:48.082Z,12.85
2018-10-09T07:10:48.070Z,12.97
2018-10-09T07:11:48.050Z,13.04
2018-10-09T07:12:48.047Z,13.10
2018-10-09T07:13:48.061Z,13.23
2018-10-09T07:14:48.023Z,13.23
2018-10-09T07:15:48.014Z,13.51
2018-10-09T07:16:47.998Z,13.49
2018-10-09T07:17:47.990Z,13.62
2018-10-09T07:18:47.980Z,13.67
2018-10-09T07:19:47.966Z,13.73
2018-10-09T07:20:47.950Z,13.75
2018-10-09T07:21:47.938Z,13.96
2018-10-09T07:22:47.928Z,14.09
2018-10-09T07:23:47.915Z,14.20
2018-10-09T07:24:47.912Z,14.22
2018-10-09T07:25:47.894Z,14.32
2018-10-09T07:26:47.886Z,14.40
2018-10-09T07:27:47.881Z,14.51
2018-10-09T07:28:47.865Z,14.54
2018-10-09T07:29:47.867Z,14.72
2018-10-09T07:30:47.840Z,14.78
2018-10-09T07:31:47.830Z,14.96
2018-10-09T07:32:47.825Z,14.98
2018-10-09T07:33:47.809Z,15.09
2018-10-09T07:34:47.794Z,15.14
2018-10-09T07:35:47.788Z,15.17
2018-10-09T07:36:47.773Z,15.19
2018-10-09T07:37:47.762Z,15.25
2018-10-09T07:38:47.757Z,15.29
2018-10-09T07:39:47.741Z,15.39
2018-10-09T07:40:47.728Z,15.51
2018-10-09T07:41:47.717Z,15.59
2018-10-09T07:42:47.709Z,15.60
2018-10-09T07:43:47.758Z,15.68
2018-10-09T07:44:47.692Z,15.76
2018-10-09T07:45:47.677Z,15.83
2018-10-09T07:46:47.663Z,15.92
2018-10-09T07:47:47.656Z,15.92
2018-10-09T07:48:47.651Z,16.05
2018-10-09T07:49:47.637Z,16.09
2018-10-09T07:50:47.629Z,16.21
2018-10-09T07:51:47.617Z,16.17
2018-10-09T07:52:47.651Z,16.31
2018-10-09T07:53:47.595Z,16.42
2018-10-09T07:54:47.589Z,16.48
2018-10-09T07:55:47.576Z,16.49
2018-10-09T07:56:47.561Z,16.60
2018-10-09T07:57:47.553Z,16.60
2018-10-09T07:58:47.561Z,16.71
2018-10-09T07:59:47.535Z,16.64
2018-10-09T08:00:47.524Z,16.68
2018-10-09T08:01:47.515Z,16.81
2018-10-09T08:02:47.503Z,16.88
2018-10-09T08:03:47.492Z,17.01
2018-10-09T08:04:47.535Z,17.03
2018-10-09T08:05:47.472Z,17.14
2018-10-09T08:06:47.467Z,17.15
2018-10-09T08:07:47.451Z,17.21
2018-10-09T08:08:47.442Z,17.12
2018-10-09T08:09:47.430Z,17.26
2018-10-09T08:10:47.466Z,17.23
2018-10-09T08:11:47.408Z,17.41
2018-10-09T08:12:47.407Z,17.41
2018-10-09T08:13:47.394Z,17.44
2018-10-09T08:14:47.390Z,17.56
2018-10-09T08:15:47.374Z,17.58
2018-10-09T08:16:47.368Z,17.75
2018-10-09T08:17:47.352Z,17.72
2018-10-09T08:18:47.350Z,17.82
2018-10-09T08:19:47.339Z,17.79
2018-10-09T08:20:47.329Z,17.93
2018-10-09T08:21:47.316Z,17.89
2018-10-09T08:22:47.351Z,17.97
2018-10-09T08:23:47.301Z,18.02
2018-10-09T08:24:47.298Z,18.10
2018-10-09T08:25:47.284Z,18.18
2018-10-09T08:26:47.271Z,18.23
2018-10-09T08:27:47.265Z,18.25
2018-10-09T08:28:47.255Z,18.35
2018-10-09T08:29:47.243Z,18.37
2018-10-09T08:30:47.230Z,18.45
2018-10-09T08:31:47.228Z,18.54
2018-10-09T08:32:47.214Z,18.55
2018-10-09T08:33:47.226Z,18.60
2018-10-09T08:34:47.202Z,18.60
2018-10-09T08:35:47.214Z,18.75
2018-10-09T08:36:47.184Z,18.82
2018-10-09T08:37:47.175Z,18.84
2018-10-09T08:38:47.169Z,18.90
2018-10-09T08:39:47.153Z,18.87
2018-10-09T08:40:47.152Z,18.88
2018-10-09T08:41:47.138Z,18.94
2018-10-09T08:42:47.131Z,18.99
2018-10-09T08:43:47.115Z,18.98
2018-10-09T08:44:47.110Z,18.99
2018-10-09T08:45:47.101Z,19.06
2018-10-09T08:46:47.095Z,19.00
2018-10-09T08:47:47.082Z,19.08
2018-10-09T08:48:47.075Z,19.18
2018-10-09T08:49:47.075Z,19.28
2018-10-09T08:50:47.058Z,19.36
2018-10-09T08:51:47.058Z,19.51
2018-10-09T08:52:47.041Z,19.47
2018-10-09T08:53:47.033Z,19.65
2018-10-09T08:54:47.024Z,19.74
2018-10-09T08:55:47.017Z,19.76
2018-10-09T08:56:47.009Z,19.88
2018-10-09T08:57:46.995Z,19.88
2018-10-09T08:58:46.990Z,19.91
2018-10-09T08:59:46.985Z,19.92
2018-10-09T09:00:46.975Z,20.06
2018-10-09T09:01:46.971Z,20.16
2018-10-09T09:02:46.959Z,20.14
2018-10-09T09:03:46.954Z,20.13
2018-10-09T09:04:46.942Z,20.23
2018-10-09T09:05:46.942Z,20.31
2018-10-09T09:06:46.927Z,20.24
2018-10-09T09:07:46.918Z,20.33
2018-10-09T09:08:46.909Z,20.32
2018-10-09T09:09:46.930Z,20.32
2018-10-09T09:10:46.895Z,20.24
2018-10-09T09:11:46.889Z,20.26
2018-10-09T09:12:46.875Z,20.28
2018-10-09T09:13:46.870Z,20.28
2018-10-09T09:14:46.859Z,20.20
2018-10-09T09:15:46.856Z,20.31
2018-10-09T09:16:46.846Z,20.32
2018-10-09T09:17:46.838Z,20.43
2018-10-09T09:18:46.830Z,20.36
2018-10-09T09:19:46.820Z,20.54
2018-10-09T09:20:46.865Z,20.59
2018-10-09T09:21:46.806Z,20.64
2018-10-09T09:22:46.802Z,20.72
2018-10-09T09:23:46.791Z,20.70
2018-10-09T09:24:46.783Z,20.73
2018-10-09T09:25:46.776Z,20.67
2018-10-09T09:26:46.903Z,20.69
2018-10-09T09:27:46.817Z,20.74
2018-10-09T09:28:46.753Z,20.79
2018-10-09T09:29:46.746Z,20.73
2018-10-09T09:30:46.735Z,20.66
2018-10-09T09:31:46.728Z,20.51
2018-10-09T09:32:46.720Z,20.57
2018-10-09T09:33:46.712Z,20.39
2018-10-09T09:34:46.710Z,20.52
2018-10-09T09:35:46.696Z,20.52
2018-10-09T09:36:46.693Z,20.54
2018-10-09T09:37:46.681Z,20.54
2018-10-09T09:38:46.687Z,20.59
2018-10-09T09:39:46.669Z,20.54
2018-10-09T09:40:46.656Z,20.66
2018-10-09T09:41:46.656Z,20.70
2018-10-09T09:42:46.642Z,20.74
2018-10-09T09:43:46.636Z,20.74
2018-10-09T09:44:46.629Z,20.74
2018-10-09T09:45:46.685Z,20.85
2018-10-09T09:46:46.620Z,20.89
2018-10-09T09:47:46.606Z,20.87
2018-10-09T09:48:46.600Z,21.12
2018-10-09T09:49:46.594Z,21.16
2018-10-09T09:50:46.589Z,21.34
2018-10-09T09:51:46.585Z,21.40
2018-10-09T09:52:46.573Z,21.53
2018-10-09T09:53:46.565Z,21.59
2018-10-09T09:54:46.554Z,21.65
2018-10-09T09:55:46.545Z,21.72
2018-10-09T09:56:46.547Z,21.74
2018-10-09T09:57:46.595Z,21.72
2018-10-09T09:58:46.778Z,21.80
2018-10-09T09:59:46.515Z,21.91
2018-10-09T10:00:46.514Z,21.72
2018-10-09T10:01:46.498Z,21.79
2018-10-09T10:02:46.497Z,21.64
2018-10-09T10:03:46.558Z,21.68
2018-10-09T10:04:46.480Z,21.64
2018-10-09T10:05:46.474Z,21.65
2018-10-09T10:06:46.471Z,21.77
2018-10-09T10:07:46.462Z,21.96
2018-10-09T10:08:46.455Z,21.90
2018-10-09T10:09:46.445Z,21.98
2018-10-09T10:10:46.444Z,22.12
2018-10-09T10:11:46.433Z,22.17
2018-10-09T10:12:46.426Z,22.14
2018-10-09T10:13:46.422Z,22.39
2018-10-09T10:14:46.416Z,22.37
2018-10-09T10:15:46.476Z,22.36
2018-10-09T10:16:46.427Z,22.22
2018-10-09T10:17:46.386Z,22.20
2018-10-09T10:18:46.384Z,22.25
2018-10-09T10:19:46.378Z,22.17
2018-10-09T10:20:46.373Z,22.24
2018-10-09T10:21:46.364Z,22.02
2018-10-09T10:22:46.363Z,22.02
2018-10-09T10:23:46.349Z,22.02
2018-10-09T10:24:46.345Z,22.17
2018-10-09T10:25:46.337Z,22.20
2018-10-09T10:26:46.331Z,22.21
2018-10-09T10:27:46.322Z,22.21
2018-10-09T10:28:46.317Z,22.24
2018-10-09T10:29:46.310Z,22.22
2018-10-09T10:30:46.304Z,22.20
2018-10-09T10:31:46.302Z,22.27
2018-10-09T10:32:46.286Z,22.35
2018-10-09T10:33:46.279Z,22.35
2018-10-09T10:34:46.280Z,22.27
2018-10-09T10:35:46.323Z,22.25
2018-10-09T10:36:46.336Z,22.20
2018-10-09T10:37:46.259Z,22.18
2018-10-09T10:38:46.258Z,22.20
2018-10-09T10:39:46.244Z,22.07
2018-10-09T10:40:46.236Z,22.21
2018-10-09T10:41:46.234Z,22.12
2018-10-09T10:42:46.224Z,22.12
2018-10-09T10:43:46.221Z,22.14
2018-10-09T10:44:46.211Z,22.15
2018-10-09T10:45:46.201Z,22.24
2018-10-09T10:46:46.197Z,22.36
2018-10-09T10:47:46.191Z,22.27
2018-10-09T10:48:46.186Z,22.24
2018-10-09T10:49:46.176Z,22.35
2018-10-09T10:50:46.173Z,22.40
2018-10-09T10:51:46.164Z,22.52
2018-10-09T10:52:46.160Z,22.58
2018-10-09T10:53:46.153Z,22.72
2018-10-09T10:54:46.167Z,22.67
2018-10-09T10:55:46.140Z,22.75
2018-10-09T10:56:46.128Z,22.86
2018-10-09T10:57:46.123Z,22.90
2018-10-09T10:58:46.118Z,22.90
2018-10-09T10:59:46.112Z,22.98
2018-10-09T11:00:46.112Z,22.98
2018-10-09T11:01:46.136Z,22.85
2018-10-09T11:02:46.112Z,22.90
2018-10-09T11:03:46.084Z,22.88
2018-10-09T11:04:46.081Z,22.88
2018-10-09T11:05:46.084Z,22.79
2018-10-09T11:06:46.071Z,22.85
2018-10-09T11:07:46.087Z,22.83
2018-10-09T11:08:46.057Z,22.86
2018-10-09T11:09:46.041Z,22.79
2018-10-09T11:10:46.040Z,22.73
2018-10-09T11:11:46.037Z,22.76
2018-10-09T11:12:46.034Z,22.70
2018-10-09T11:13:46.035Z,22.65
2018-10-09T11:14:46.049Z,22.72
2018-10-09T11:15:46.012Z,22.72
2018-10-09T11:16:46.012Z,22.76
2018-10-09T11:17:45.997Z,22.70
2018-10-09T11:18:45.993Z,22.68
2018-10-09T11:19:45.988Z,22.68
2018-10-09T11:20:45.978Z,22.76
2018-10-09T11:21:46.016Z,22.88
2018-10-09T11:22:45.966Z,22.82
2018-10-09T11:23:45.960Z,22.92
2018-10-09T11:24:45.958Z,22.88
2018-10-09T11:25:45.945Z,22.83
2018-10-09T11:26:45.937Z,22.88
2018-10-09T11:27:45.932Z,23.04
2018-10-09T11:28:45.936Z,23.09
2018-10-09T11:29:45.927Z,23.02
2018-10-09T11:30:45.917Z,22.95
2018-10-09T11:31:45.908Z,23.04
2018-10-09T11:32:45.900Z,23.10
2018-10-09T11:33:45.890Z,23.16
2018-10-09T11:34:45.890Z,23.16
2018-10-09T11:35:45.881Z,23.31
2018-10-09T11:36:45.875Z,23.33
2018-10-09T11:37:45.872Z,23.51
2018-10-09T11:38:45.868Z,23.47
2018-10-09T11:39:45.862Z,23.53
2018-10-09T11:40:45.852Z,23.61
2018-10-09T11:41:45.848Z,23.72
2018-10-09T11:42:45.891Z,23.80
2018-10-09T11:43:45.835Z,23.91
2018-10-09T11:44:45.825Z,23.85
2018-10-09T11:45:45.819Z,23.87
2018-10-09T11:46:45.817Z,23.87
2018-10-09T11:47:45.810Z,24.03
2018-10-09T11:48:45.806Z,23.90
2018-10-09T11:49:45.806Z,23.85
2018-10-09T11:50:45.799Z,23.87
2018-10-09T11:51:45.789Z,23.91
2018-10-09T11:52:45.782Z,23.84
2018-10-09T11:53:45.777Z,23.80
2018-10-09T11:54:45.774Z,23.87
2018-10-09T11:55:45.761Z,23.95
2018-10-09T11:56:45.756Z,24.03
2018-10-09T11:57:45.751Z,24.10
2018-10-09T11:58:45.776Z,24.15
2018-10-09T11:59:45.742Z,24.21
2018-10-09T12:00:45.731Z,24.28
2018-10-09T12:01:45.723Z,24.40
2018-10-09T12:02:45.780Z,24.32
2018-10-09T12:03:45.718Z,24.35
2018-10-09T12:04:45.710Z,24.35
2018-10-09T12:05:45.771Z,24.46
2018-10-09T12:06:45.704Z,24.47
2018-10-09T12:07:45.697Z,24.57
2018-10-09T12:08:45.682Z,24.45
2018-10-09T12:09:45.680Z,24.45
2018-10-09T12:10:45.678Z,24.46
2018-10-09T12:11:45.674Z,24.55
2018-10-09T12:12:45.667Z,24.60
2018-10-09T12:13:45.661Z,24.62
2018-10-09T12:14:45.664Z,24.60
2018-10-09T12:15:45.649Z,24.57
2018-10-09T12:16:45.648Z,24.60
2018-10-09T12:17:45.633Z,24.52
2018-10-09T12:18:45.633Z,24.57
2018-10-09T12:19:45.626Z,24.68
2018-10-09T12:20:45.624Z,24.69
2018-10-09T12:21:45.614Z,24.80
2018-10-09T12:22:45.609Z,24.78
2018-10-09T12:23:45.612Z,24.85
2018-10-09T12:24:45.594Z,24.87
2018-10-09T12:25:45.596Z,25.08
2018-10-09T12:26:45.592Z,25.06
2018-10-09T12:27:45.586Z,25.13
2018-10-09T12:28:45.575Z,25.10
2018-10-09T12:29:45.569Z,25.09
2018-10-09T12:30:45.563Z,25.09
2018-10-09T12:31:45.565Z,25.18
2018-10-09T12:32:45.600Z,25.10
2018-10-09T12:33:45.552Z,25.14
2018-10-09T12:34:45.541Z,25.23
2018-10-09T12:35:45.542Z,25.20
2018-10-09T12:36:45.538Z,25.25
2018-10-09T12:37:45.532Z,25.30
2018-10-09T12:38:45.524Z,25.35
2018-10-09T12:39:45.520Z,25.33
2018-10-09T12:40:45.516Z,25.30
2018-10-09T12:41:45.510Z,25.42
2018-10-09T12:42:45.510Z,25.42
2018-10-09T12:43:45.533Z,25.38
2018-10-09T12:44:45.493Z,25.42
2018-10-09T12:45:45.503Z,25.47
2018-10-09T12:46:45.487Z,25.60
2018-10-09T12:47:45.478Z,25.61
2018-10-09T12:48:45.473Z,25.62
2018-10-09T12:49:45.467Z,25.70
2018-10-09T12:50:45.461Z,25.62
2018-10-09T12:51:45.470Z,25.70
2018-10-09T12:52:45.461Z,25.70